Portada
METAR-TAF:

METAR-TAF

Aeropuertos :

Aruba, Aruba

Aeropuerto Internacional Reina Beatrix

latitud: 12-30N, longitud: 070-01W, altitud: 18 m

Observación

El informe se hizo hace 28 minutos, a las 22:00 UTC
Viento 19 kt del este
Temperatura 28°C
Humedad 79%
Presión 1010 hPa
Visibilidad 10 km o más
Escasas nubes a una altura de 1700 ft

METAR: TNCA 212200Z 08019KT 9999 FEW017 28/24 Q1010 A2983 NOSIG

Hora: 18:28 (22:28 UTC)

Pronóstico

El informe se hizo hace 6 horas y 28 minutos, a las 16:00 UTC
Pronóstico válido del 21 a las 18 UTC al 22 a las 18 UTC
Viento 21 kt del este
Visibilidad 10 km o más
Nubes dispersas a una altura de 1800 ft
Temporalmente
del 21 a las 18 UTC al 21 a las 24 UTC
Cielo nuboso a una altura de 1400 ft
Temporalmente
del 22 a las 04 UTC al 22 a las 12 UTC
Visibilidad: 5000 m
Cielo nuboso a una altura de 1400 ft
chaparrones de lluvia

TAF: TNCA 211600Z 2118/2218 08021KT 9999 SCT018 TEMPO 2118/2124 BKN014 TEMPO 2204/2212 5000 SHRA BKN014

Observaciones y pronósticos meteorológicos de más de 4000 aeropuertos (mensajes METAR y TAF).

Los puntos amarillos y rojos representan las estaciones disponibles.

Ponga el ratón en el punto deseado para ver el nombre de la estación.

Haga clic para ver las observaciones y los pronósticos meteorológicos.

Para cambiar el mapa : haga clic en los botones verdes con una cruz de color negro para hacer un zoom, en el botón verde con un guión para alejar o en las flechas verdes para mapas adyacentes.


METAR-TAF: